Time;durP1;ratioP1;P1;durP2;ratioP2;P2;SDS_P1;SDS_P2;PMS_P1;PMS_P2;Temp;Humidity;BMP_temperature;BMP_pressure;BME280_temperature;BME280_humidity;BME280_pressure;Samples;Min_cycle;Max_cycle;Signal;HPM_P1;HPM_P2
2022/02/24 00:00:26;;;;;;;;;;;8.10;99.90;;;;;;4857107;29;19935;-82
2022/02/24 00:02:56;;;;;;;;;;;8.10;99.90;;;;;;4844882;29;19934;-82
2022/02/24 00:05:26;;;;;;;;;;;8.20;99.90;;;;;;4859303;29;19932;-81
2022/02/24 00:07:55;;;;;;;;;;;8.20;99.90;;;;;;4862482;29;19932;-82
2022/02/24 00:10:24;;;;;;;;;;;9.00;99.90;;;;;;4857937;29;19939;-81
2022/02/24 00:12:53;;;;;;;;;;;8.40;99.90;;;;;;4869639;29;20429;-83
2022/02/24 00:15:21;;;;;;;;;;;8.40;99.90;;;;;;4858112;29;19951;-81
2022/02/24 00:17:49;;;;;;;;;;;8.40;99.90;;;;;;4872619;29;19938;-81
2022/02/24 00:20:18;;;;;;;;;;;8.40;99.90;;;;;;4856615;29;19939;-83
2022/02/24 00:22:46;;;;;;;;;;;8.50;99.90;;;;;;4874775;29;19943;-80
2022/02/24 00:25:15;;;;;;;;;;;8.50;99.90;;;;;;4859971;29;20362;-85
2022/02/24 00:27:45;;;;;;;;;;;8.00;99.90;;;;;;4859473;29;19934;-84
2022/02/24 00:30:14;;;;;;;;;;;7.30;99.90;;;;;;4842032;29;19932;-80
2022/02/24 00:32:43;;;;;;;;;;;8.40;99.90;;;;;;4875461;29;19924;-83
2022/02/24 00:35:11;;;;;;;;;;;8.50;99.90;;;;;;4867557;29;19934;-80
2022/02/24 00:37:41;;;;;;;;;;;8.40;99.90;;;;;;4846463;29;19943;-81
2022/02/24 00:40:12;;;;;;;;;;;8.40;99.90;;;;;;4863309;29;19935;-82
2022/02/24 00:42:40;;;;;;;;;;;8.30;99.90;;;;;;4858673;29;19948;-82
2022/02/24 00:45:08;;;;;;;;;;;8.30;99.90;;;;;;4858895;29;19943;-80
2022/02/24 00:47:36;;;;;;;;;;;7.90;99.90;;;;;;4873661;29;19928;-80
2022/02/24 00:50:06;;;;;;;;;;;8.90;99.90;;;;;;4874372;29;19932;-81
2022/02/24 00:52:37;;;;;;;;;;;8.10;99.90;;;;;;4857402;29;19935;-82
2022/02/24 00:55:05;;;;;;;;;;;8.40;99.90;;;;;;4840046;29;19933;-82
2022/02/24 00:57:33;;;;;;;;;;;8.40;99.90;;;;;;4853462;29;19927;-83
2022/02/24 01:00:03;;;;;;;;;;;8.30;99.90;;;;;;4835795;29;19933;-82
2022/02/24 01:02:37;;;;;;;;;;;8.40;99.90;;;;;;4852205;29;19928;-84
2022/02/24 01:05:08;;;;;;;;;;;6.90;99.90;;;;;;4855098;29;19928;-83
2022/02/24 01:07:36;;;;;;;;;;;8.60;99.90;;;;;;4850580;29;19943;-85
2022/02/24 01:10:06;;;;;;;;;;;8.50;99.90;;;;;;4845207;29;19947;-82
2022/02/24 01:12:36;;;;;;;;;;;8.50;99.90;;;;;;4856270;29;19935;-83
2022/02/24 01:15:08;;;;;;;;;;;8.40;99.90;;;;;;4879327;29;19943;-82
2022/02/24 01:17:37;;;;;;;;;;;8.40;99.90;;;;;;4842685;29;19936;-84
2022/02/24 01:20:10;;;;;;;;;;;8.40;99.90;;;;;;4870937;29;19928;-84
2022/02/24 01:22:38;;;;;;;;;;;8.50;99.90;;;;;;4842332;29;19935;-83
2022/02/24 01:25:10;;;;;;;;;;;8.40;99.90;;;;;;4843367;29;20559;-81
2022/02/24 01:27:38;;;;;;;;;;;8.40;99.90;;;;;;4873172;29;19995;-82
2022/02/24 01:30:06;;;;;;;;;;;8.30;99.90;;;;;;4856788;29;19929;-84
2022/02/24 01:32:35;;;;;;;;;;;9.60;99.90;;;;;;4872450;29;19928;-82
2022/02/24 01:35:06;;;;;;;;;;;8.10;99.90;;;;;;4857811;29;19932;-83
2022/02/24 01:37:36;;;;;;;;;;;6.70;99.90;;;;;;4856599;29;19932;-82
2022/02/24 01:40:05;;;;;;;;;;;8.30;99.90;;;;;;4856487;29;19935;-81
2022/02/24 01:42:33;;;;;;;;;;;8.40;99.90;;;;;;4871136;29;19938;-83
2022/02/24 01:45:02;;;;;;;;;;;8.60;99.90;;;;;;4856977;29;19939;-83
2022/02/24 01:47:30;;;;;;;;;;;8.40;99.90;;;;;;4852613;29;19939;-83
2022/02/24 01:49:59;;;;;;;;;;;8.50;99.90;;;;;;4839145;29;19932;-82
2022/02/24 01:52:29;;;;;;;;;;;8.60;99.90;;;;;;4856668;29;20376;-82
2022/02/24 01:54:57;;;;;;;;;;;8.90;99.90;;;;;;4882973;29;20302;-82
2022/02/24 01:57:25;;;;;;;;;;;8.20;99.90;;;;;;4890977;29;19943;-83
2022/02/24 01:59:54;;;;;;;;;;;8.50;99.90;;;;;;4844577;29;20298;-82
2022/02/24 02:02:22;;;;;;;;;;;8.40;99.90;;;;;;4855789;29;19932;-83
2022/02/24 02:04:51;;;;;;;;;;;8.60;99.90;;;;;;4856733;29;20397;-83
2022/02/24 02:07:21;;;;;;;;;;;8.60;99.90;;;;;;4842982;29;19928;-84
2022/02/24 02:09:49;;;;;;;;;;;8.40;99.90;;;;;;4859555;29;19957;-82
2022/02/24 02:12:18;;;;;;;;;;;8.60;99.90;;;;;;4891670;29;19942;-81
2022/02/24 02:14:47;;;;;;;;;;;8.90;99.90;;;;;;4895008;29;20417;-82
2022/02/24 02:17:15;;;;;;;;;;;8.80;99.90;;;;;;4876832;29;19927;-83
2022/02/24 02:19:44;;;;;;;;;;;8.80;99.90;;;;;;4892105;29;19938;-83
2022/02/24 02:22:13;;;;;;;;;;;8.70;99.90;;;;;;4892071;29;19928;-82
2022/02/24 02:24:58;;;;;;;;;;;8.70;99.90;;;;;;4877298;29;19935;-83
2022/02/24 02:27:27;;;;;;;;;;;8.70;99.90;;;;;;4892642;29;19955;-83
2022/02/24 02:29:56;;;;;;;;;;;8.80;99.90;;;;;;4891840;29;19928;-82
2022/02/24 02:32:25;;;;;;;;;;;8.70;99.90;;;;;;4892783;29;19932;-82
2022/02/24 02:34:53;;;;;;;;;;;8.60;99.90;;;;;;4891475;29;19938;-81
2022/02/24 02:37:21;;;;;;;;;;;8.50;99.90;;;;;;4891551;29;19927;-82
2022/02/24 02:39:50;;;;;;;;;;;8.50;99.90;;;;;;4874981;29;19950;-83
2022/02/24 02:42:18;;;;;;;;;;;8.20;99.90;;;;;;4874766;29;19958;-82
2022/02/24 02:44:46;;;;;;;;;;;8.50;99.90;;;;;;4860026;29;19932;-83
2022/02/24 02:47:15;;;;;;;;;;;8.60;99.90;;;;;;4874844;29;19947;-82
2022/02/24 02:49:46;;;;;;;;;;;8.40;99.90;;;;;;4869380;29;19942;-84
2022/02/24 02:52:16;;;;;;;;;;;8.40;99.90;;;;;;4872413;29;19928;-82
2022/02/24 02:54:47;;;;;;;;;;;8.40;99.90;;;;;;4858268;29;19942;-81
2022/02/24 02:57:18;;;;;;;;;;;8.40;99.90;;;;;;4858085;29;19916;-84
2022/02/24 02:59:46;;;;;;;;;;;8.40;99.90;;;;;;4875006;29;20304;-82
2022/02/24 03:02:14;;;;;;;;;;;8.40;99.90;;;;;;4875598;29;19938;-83
2022/02/24 03:04:43;;;;;;;;;;;8.40;99.90;;;;;;4843748;29;19939;-83
2022/02/24 03:07:12;;;;;;;;;;;8.40;99.90;;;;;;4860497;29;19926;-82
2022/02/24 03:09:43;;;;;;;;;;;8.30;99.90;;;;;;4862753;29;19928;-82
2022/02/24 03:12:12;;;;;;;;;;;6.70;99.90;;;;;;4893037;29;19932;-82
2022/02/24 03:14:41;;;;;;;;;;;8.40;99.90;;;;;;4893301;29;19927;-84
2022/02/24 03:17:12;;;;;;;;;;;8.40;99.90;;;;;;4893143;29;19936;-81
2022/02/24 03:19:41;;;;;;;;;;;8.30;99.90;;;;;;4843450;29;19932;-83
2022/02/24 03:22:10;;;;;;;;;;;7.80;99.90;;;;;;4875447;29;19916;-84
2022/02/24 03:24:39;;;;;;;;;;;6.90;99.90;;;;;;4876464;29;19928;-83
2022/02/24 03:27:07;;;;;;;;;;;8.20;99.90;;;;;;4875713;29;19934;-82
2022/02/24 03:29:36;;;;;;;;;;;8.30;99.90;;;;;;4876110;29;19927;-81
2022/02/24 03:32:06;;;;;;;;;;;9.90;99.90;;;;;;4861086;29;19942;-82
2022/02/24 03:34:35;;;;;;;;;;;8.30;99.90;;;;;;4878550;29;19935;-82
2022/02/24 03:37:03;;;;;;;;;;;8.30;99.90;;;;;;4880263;29;19942;-81
2022/02/24 03:39:32;;;;;;;;;;;8.30;99.90;;;;;;4896169;29;19928;-82
2022/02/24 03:42:00;;;;;;;;;;;8.30;99.90;;;;;;4895552;29;19935;-82
2022/02/24 03:44:33;;;;;;;;;;;7.70;99.90;;;;;;4879917;29;20005;-82
2022/02/24 03:47:02;;;;;;;;;;;7.00;99.90;;;;;;4879784;29;19934;-82
2022/02/24 03:49:46;;;;;;;;;;;8.60;99.90;;;;;;4878772;29;19932;-81
2022/02/24 03:52:16;;;;;;;;;;;8.30;99.90;;;;;;4894724;29;19928;-80
2022/02/24 03:54:44;;;;;;;;;;;8.30;99.90;;;;;;4895665;29;19932;-81
2022/02/24 03:57:16;;;;;;;;;;;8.10;99.90;;;;;;4878669;29;19942;-82
2022/02/24 03:59:44;;;;;;;;;;;8.40;99.90;;;;;;4879822;29;20361;-81
2022/02/24 04:02:13;;;;;;;;;;;8.40;99.90;;;;;;4898250;29;19928;-82
2022/02/24 04:04:43;;;;;;;;;;;7.00;99.90;;;;;;4860257;29;19929;-82
2022/02/24 04:07:12;;;;;;;;;;;8.60;99.90;;;;;;4877554;29;19928;-81
2022/02/24 04:09:41;;;;;;;;;;;7.80;99.90;;;;;;4894738;29;20030;-83
2022/02/24 04:12:15;;;;;;;;;;;8.60;99.90;;;;;;4880186;29;20393;-81
2022/02/24 04:14:44;;;;;;;;;;;8.60;99.90;;;;;;4895143;29;19934;-85
2022/02/24 04:17:14;;;;;;;;;;;7.90;99.90;;;;;;4893605;29;19934;-85
2022/02/24 04:19:42;;;;;;;;;;;7.20;99.90;;;;;;4876810;29;20037;-86
2022/02/24 04:22:10;;;;;;;;;;;8.70;99.90;;;;;;4874093;29;19928;-83
2022/02/24 04:24:38;;;;;;;;;;;8.80;99.90;;;;;;4876186;29;19934;-83
2022/02/24 04:27:10;;;;;;;;;;;8.80;99.90;;;;;;4893565;29;19931;-87
2022/02/24 04:29:38;;;;;;;;;;;8.80;99.90;;;;;;4876684;29;19934;-83
2022/02/24 04:32:07;;;;;;;;;;;8.90;99.90;;;;;;4906482;29;19927;-83
2022/02/24 04:34:34;;;;;;;;;;;9.10;99.90;;;;;;4876627;29;19932;-84
2022/02/24 04:37:03;;;;;;;;;;;8.90;99.90;;;;;;4876379;29;19928;-81
2022/02/24 04:39:31;;;;;;;;;;;8.90;99.90;;;;;;4860839;29;19942;-83
2022/02/24 04:41:59;;;;;;;;;;;9.00;99.90;;;;;;4891246;29;19932;-81
2022/02/24 04:44:27;;;;;;;;;;;9.00;99.90;;;;;;4893475;29;20403;-84
2022/02/24 04:46:55;;;;;;;;;;;9.00;99.90;;;;;;4860333;29;19932;-82
2022/02/24 04:49:23;;;;;;;;;;;9.00;99.90;;;;;;4857971;29;19928;-81
2022/02/24 04:51:51;;;;;;;;;;;9.00;99.90;;;;;;4855181;29;19934;-82
2022/02/24 04:54:20;;;;;;;;;;;8.90;99.90;;;;;;4890845;29;19939;-82
2022/02/24 04:56:48;;;;;;;;;;;9.00;99.90;;;;;;4860484;29;19935;-82
2022/02/24 04:59:18;;;;;;;;;;;9.00;99.90;;;;;;4860411;29;19928;-82
2022/02/24 05:01:46;;;;;;;;;;;8.90;99.90;;;;;;4871433;29;19939;-82
2022/02/24 05:04:16;;;;;;;;;;;9.00;99.90;;;;;;4863213;29;19947;-82
2022/02/24 05:06:44;;;;;;;;;;;9.00;99.90;;;;;;4875796;29;19928;-81
2022/02/24 05:09:12;;;;;;;;;;;9.10;99.90;;;;;;4859436;29;19928;-82
2022/02/24 05:11:40;;;;;;;;;;;9.00;99.90;;;;;;4863090;29;19932;-83
2022/02/24 05:14:08;;;;;;;;;;;9.10;99.90;;;;;;4875448;29;19928;-82
2022/02/24 05:16:36;;;;;;;;;;;9.00;99.90;;;;;;4876463;29;20539;-82
2022/02/24 05:19:04;;;;;;;;;;;9.10;99.90;;;;;;4867641;29;19939;-82
2022/02/24 05:21:32;;;;;;;;;;;9.10;99.90;;;;;;4868448;29;19928;-82
2022/02/24 05:24:05;;;;;;;;;;;9.20;99.90;;;;;;4892640;29;19928;-86
2022/02/24 05:26:37;;;;;;;;;;;9.10;99.90;;;;;;4891404;29;19943;-84
2022/02/24 05:29:06;;;;;;;;;;;9.10;99.90;;;;;;4875800;29;19932;-83
2022/02/24 05:31:34;;;;;;;;;;;9.10;99.90;;;;;;4856504;29;19932;-84
2022/02/24 05:34:02;;;;;;;;;;;9.10;99.90;;;;;;4879122;29;19928;-85
2022/02/24 05:36:31;;;;;;;;;;;9.10;99.90;;;;;;4860425;29;19931;-84
2022/02/24 05:38:59;;;;;;;;;;;9.00;99.90;;;;;;4861178;29;19939;-84
2022/02/24 05:41:31;;;;;;;;;;;8.50;99.90;;;;;;4845202;29;19936;-83
2022/02/24 05:44:02;;;;;;;;;;;9.00;99.90;;;;;;4876004;29;19938;-83
2022/02/24 05:46:31;;;;;;;;;;;8.90;99.90;;;;;;4892700;29;19934;-84
2022/02/24 05:48:59;;;;;;;;;;;9.00;99.90;;;;;;4859253;29;20310;-84
2022/02/24 05:51:29;;;;;;;;;;;8.90;99.90;;;;;;4874583;29;19935;-85
2022/02/24 05:53:57;;;;;;;;;;;9.00;99.90;;;;;;4873245;29;19928;-85
2022/02/24 05:56:27;;;;;;;;;;;9.00;99.90;;;;;;4873547;29;19934;-83
2022/02/24 05:58:58;;;;;;;;;;;8.80;99.90;;;;;;4871999;29;19947;-85
2022/02/24 06:01:26;;;;;;;;;;;8.80;99.90;;;;;;4888587;29;19936;-84
2022/02/24 06:03:56;;;;;;;;;;;8.80;99.90;;;;;;4878509;29;19931;-83
2022/02/24 06:06:25;;;;;;;;;;;8.80;99.90;;;;;;4870014;29;19932;-83
2022/02/24 06:08:56;;;;;;;;;;;8.80;99.90;;;;;;4866543;29;19928;-83
2022/02/24 06:11:34;;;;;;;;;;;8.90;99.90;;;;;;4855106;29;19936;-83
2022/02/24 06:14:02;;;;;;;;;;;8.80;99.90;;;;;;4864702;29;20352;-84
2022/02/24 06:16:35;;;;;;;;;;;8.70;99.90;;;;;;4859261;29;19927;-83
2022/02/24 06:19:03;;;;;;;;;;;9.00;99.90;;;;;;4873961;29;19936;-84
2022/02/24 06:21:38;;;;;;;;;;;8.70;99.90;;;;;;4876644;29;19934;-85
2022/02/24 06:24:07;;;;;;;;;;;7.70;99.90;;;;;;4858227;29;20451;-84
2022/02/24 06:26:39;;;;;;;;;;;7.20;99.90;;;;;;4889736;29;19966;-84
2022/02/24 06:29:09;;;;;;;;;;;8.70;99.90;;;;;;4858627;29;19928;-85
2022/02/24 06:31:45;;;;;;;;;;;7.70;99.90;;;;;;4872960;29;20049;-85
2022/02/24 06:34:32;;;;;;;;;;;8.50;99.90;;;;;;4890642;29;19932;-84
2022/02/24 06:37:06;;;;;;;;;;;8.70;99.90;;;;;;4874024;29;19938;-84
2022/02/24 06:39:42;;;;;;;;;;;8.60;99.90;;;;;;4874167;29;19927;-84
2022/02/24 06:42:13;;;;;;;;;;;8.70;99.90;;;;;;4858125;29;19932;-86
2022/02/24 06:44:45;;;;;;;;;;;8.60;99.90;;;;;;4889570;29;19928;-83
2022/02/24 06:47:16;;;;;;;;;;;8.60;99.90;;;;;;4857708;29;19928;-84
2022/02/24 06:49:52;;;;;;;;;;;8.60;99.90;;;;;;4887068;29;19938;-84
2022/02/24 06:52:22;;;;;;;;;;;8.40;99.90;;;;;;4870894;29;19932;-85
2022/02/24 06:54:53;;;;;;;;;;;8.60;99.90;;;;;;4884972;29;19935;-84
2022/02/24 06:57:24;;;;;;;;;;;8.80;99.90;;;;;;4873186;29;19927;-83
2022/02/24 07:00:04;;;;;;;;;;;8.80;99.90;;;;;;4889709;29;19932;-84
2022/02/24 07:02:34;;;;;;;;;;;8.80;99.90;;;;;;4870081;29;19928;-83
2022/02/24 07:05:07;;;;;;;;;;;9.10;99.90;;;;;;4889983;29;19928;-85
2022/02/24 07:07:58;;;;;;;;;;;9.00;99.90;;;;;;4858193;29;19938;-83
2022/02/24 07:10:29;;;;;;;;;;;9.10;99.90;;;;;;4877310;29;19932;-84
2022/02/24 07:12:58;;;;;;;;;;;9.00;99.90;;;;;;4878253;29;19943;-85
2022/02/24 07:15:32;;;;;;;;;;;8.40;99.90;;;;;;4848354;29;19927;-85
2022/02/24 07:18:25;;;;;;;;;;;9.00;99.90;;;;;;4866092;29;19928;-83
2022/02/24 07:20:55;;;;;;;;;;;9.20;99.90;;;;;;4875745;29;19931;-80
2022/02/24 07:23:26;;;;;;;;;;;8.90;99.90;;;;;;4878501;29;19935;-86
2022/02/24 07:25:56;;;;;;;;;;;8.70;99.90;;;;;;4876392;29;19952;-83
2022/02/24 07:28:25;;;;;;;;;;;10.30;99.90;;;;;;4877578;29;19935;-84
2022/02/24 07:30:54;;;;;;;;;;;7.90;99.90;;;;;;4874541;29;19938;-84
2022/02/24 07:33:22;;;;;;;;;;;7.90;99.90;;;;;;4873487;29;19932;-83
2022/02/24 07:35:52;;;;;;;;;;;7.80;99.90;;;;;;4877366;29;19939;-83
2022/02/24 07:38:20;;;;;;;;;;;7.80;99.90;;;;;;4874266;29;19932;-84
2022/02/24 07:44:58;;;;;;;;;;;7.70;99.90;;;;;;4849783;29;19942;-85
2022/02/24 07:47:59;;;;;;;;;;;6.50;99.90;;;;;;4882628;29;19938;-86
2022/02/24 07:51:16;;;;;;;;;;;7.50;99.90;;;;;;4874337;29;19942;-86
2022/02/24 07:54:16;;;;;;;;;;;7.30;99.90;;;;;;4891851;29;20420;-86
2022/02/24 07:57:42;;;;;;;;;;;6.70;99.90;;;;;;4810556;29;19929;-89
2022/02/24 08:00:27;;;;;;;;;;;7.30;99.90;;;;;;4790160;29;19934;-86
2022/02/24 08:03:30;;;;;;;;;;;7.20;99.90;;;;;;4787466;30;19933;-89
2022/02/24 08:06:35;;;;;;;;;;;7.90;99.90;;;;;;4800534;30;19928;-85
2022/02/24 08:09:51;;;;;;;;;;;7.00;99.90;;;;;;4778158;30;19933;-85
2022/02/24 08:13:43;;;;;;;;;;;7.10;99.90;;;;;;4743167;30;19930;-87
2022/02/24 08:32:47;;;;;;;;;;;7.50;99.90;;;;;;4668820;30;20418;-86
2022/02/24 08:36:15;;;;;;;;;;;;;;;;;;;;;
2022/02/24 08:40:01;;;;;;;;;;;;;;;;;;;;;
2022/02/24 08:43:45;;;;;;;;;;;9.30;99.90;;;;;;4673841;30;20039;-85
2022/02/24 08:47:03;;;;;;;;;;;7.90;99.90;;;;;;4794683;30;19929;-86
2022/02/24 08:49:58;;;;;;;;;;;7.70;99.90;;;;;;4822441;29;19933;-90
2022/02/24 09:01:41;;;;;;;;;;;;;;;;;;;;;
2022/02/24 09:09:57;;;;;;;;;;;6.30;99.90;;;;;;4700119;30;19952;-85
2022/02/24 09:12:29;;;;;;;;;;;7.80;99.90;;;;;;4674358;30;19977;-84
2022/02/24 09:14:59;;;;;;;;;;;7.60;99.90;;;;;;4737268;30;19930;-84
2022/02/24 09:17:34;;;;;;;;;;;8.10;99.90;;;;;;4756863;30;19930;-85
2022/02/24 09:23:49;;;;;;;;;;;;;;;;;;;;;
2022/02/24 09:35:18;;;;;;;;;;;8.60;99.90;;;;;;4366446;30;9999940;-87
2022/02/24 09:38:54;;;;;;;;;;;;;;;;;;;;;
2022/02/24 09:41:44;;;;;;;;;;;6.50;99.90;;;;;;4743710;30;19933;-86
2022/02/24 09:45:08;;;;;;;;;;;;;;;;;;;;;
2022/02/24 10:04:45;;;;;;;;;;;6.30;99.90;;;;;;4621444;31;19939;-89
2022/02/24 10:12:30;;;;;;;;;;;5.30;99.90;;;;;;4643589;30;19923;-88
2022/02/24 10:16:14;;;;;;;;;;;5.60;99.90;;;;;;4684507;30;19932;-86
2022/02/24 10:19:48;;;;;;;;;;;6.20;99.90;;;;;;4625258;31;19936;-86
2022/02/24 10:23:39;;;;;;;;;;;;;;;;;;;;;
2022/02/24 10:27:52;;;;;;;;;;;6.20;99.90;;;;;;4683601;30;19932;-86
2022/02/24 10:35:19;;;;;;;;;;;6.10;99.90;;;;;;4773082;29;19917;-86
2022/02/24 10:42:39;;;;;;;;;;;6.00;99.90;;;;;;4783349;30;19939;-85
2022/02/24 10:46:13;;;;;;;;;;;;;;;;;;;;;
2022/02/24 10:49:15;;;;;;;;;;;;;;;;;;;;;
2022/02/24 10:52:11;;;;;;;;;;;6.20;99.90;;;;;;4798264;29;19937;-85
2022/02/24 10:55:00;;;;;;;;;;;6.90;99.90;;;;;;4800174;30;19934;-85
2022/02/24 10:58:15;;;;;;;;;;;6.30;99.90;;;;;;4795125;29;19992;-85
2022/02/24 11:01:09;;;;;;;;;;;7.00;99.90;;;;;;4801169;30;20506;-87
2022/02/24 11:04:08;;;;;;;;;;;5.30;99.90;;;;;;4767208;30;19929;-87
2022/02/24 11:06:51;;;;;;;;;;;6.70;99.90;;;;;;4791702;29;19935;-85
2022/02/24 11:09:41;;;;;;;;;;;7.10;99.90;;;;;;4820760;29;19935;-86
2022/02/24 11:12:29;;;;;;;;;;;6.90;99.90;;;;;;4847664;29;19944;-88
2022/02/24 11:15:21;;;;;;;;;;;7.40;99.90;;;;;;4855631;29;19940;-85
2022/02/24 11:18:54;;;;;;;;;;;6.90;99.90;;;;;;4825221;29;19954;-86
2022/02/24 11:21:57;;;;;;;;;;;7.00;99.90;;;;;;4854350;29;20031;-85
2022/02/24 11:25:28;;;;;;;;;;;8.20;99.90;;;;;;4861815;29;19928;-85
2022/02/24 11:32:30;;;;;;;;;;;7.20;99.90;;;;;;4848023;29;19928;-84
2022/02/24 11:35:56;;;;;;;;;;;6.10;99.90;;;;;;4874264;29;19935;-85
2022/02/24 11:39:44;;;;;;;;;;;6.70;99.90;;;;;;4840450;29;19931;-88
2022/02/24 11:43:45;;;;;;;;;;;;;;;;;;;;;
2022/02/24 11:47:18;;;;;;;;;;;6.30;99.90;;;;;;4817725;29;19933;-86
2022/02/24 11:49:56;;;;;;;;;;;7.60;99.90;;;;;;4819681;29;20378;-84
2022/02/24 11:52:45;;;;;;;;;;;7.60;99.90;;;;;;4835661;29;19938;-85
2022/02/24 11:55:34;;;;;;;;;;;7.70;99.90;;;;;;4906617;29;19942;-84
2022/02/24 11:58:29;;;;;;;;;;;7.60;99.90;;;;;;4903272;29;19932;-86
2022/02/24 12:01:10;;;;;;;;;;;7.70;99.90;;;;;;4866448;29;19934;-84
2022/02/24 12:03:43;;;;;;;;;;;7.70;99.90;;;;;;4871942;29;19928;-84
2022/02/24 12:06:16;;;;;;;;;;;7.70;99.90;;;;;;4859288;29;19928;-84
2022/02/24 12:09:01;;;;;;;;;;;7.30;99.90;;;;;;4893171;29;19935;-83
2022/02/24 12:11:50;;;;;;;;;;;7.90;99.90;;;;;;4878711;29;19928;-82
2022/02/24 12:14:24;;;;;;;;;;;8.20;99.90;;;;;;4879159;29;19932;-84
2022/02/24 12:17:01;;;;;;;;;;;8.20;99.90;;;;;;4894005;29;19939;-83
2022/02/24 12:19:49;;;;;;;;;;;8.20;99.90;;;;;;4879120;29;19954;-82
2022/02/24 12:22:30;;;;;;;;;;;8.40;99.90;;;;;;4895059;29;19927;-83
2022/02/24 12:25:17;;;;;;;;;;;8.40;99.90;;;;;;4880738;29;19963;-85
2022/02/24 12:28:06;;;;;;;;;;;8.50;99.90;;;;;;4871909;29;19935;-84
2022/02/24 12:30:40;;;;;;;;;;;7.70;99.90;;;;;;4878750;29;19936;-84
2022/02/24 12:33:13;;;;;;;;;;;8.40;99.90;;;;;;4874264;29;19939;-84
2022/02/24 12:35:46;;;;;;;;;;;8.40;99.90;;;;;;4876959;29;19928;-85
2022/02/24 12:38:20;;;;;;;;;;;8.40;99.90;;;;;;4877537;29;19934;-83
2022/02/24 12:40:50;;;;;;;;;;;8.30;98.40;;;;;;4877646;29;19927;-83
2022/02/24 12:43:22;;;;;;;;;;;8.40;97.70;;;;;;4878395;29;19916;-84
2022/02/24 12:45:54;;;;;;;;;;;8.60;97.30;;;;;;4894097;29;19932;-83
2022/02/24 12:48:23;;;;;;;;;;;8.30;97.40;;;;;;4862889;29;19928;-83
2022/02/24 12:50:53;;;;;;;;;;;8.40;97.00;;;;;;4878510;29;19927;-82
2022/02/24 12:53:24;;;;;;;;;;;8.40;96.70;;;;;;4862382;29;19932;-84
2022/02/24 12:55:55;;;;;;;;;;;8.30;96.90;;;;;;4895458;29;20362;-83
2022/02/24 12:58:25;;;;;;;;;;;8.40;97.30;;;;;;4873688;29;20406;-83
2022/02/24 13:00:54;;;;;;;;;;;8.50;98.40;;;;;;4883788;29;19928;-84
2022/02/24 13:03:30;;;;;;;;;;;8.50;98.30;;;;;;4844628;29;19928;-83
2022/02/24 13:06:07;;;;;;;;;;;8.20;97.10;;;;;;4877483;29;19924;-83
2022/02/24 13:21:43;;;;;;;;;;;;;;;;;;;;;
2022/02/24 13:37:10;;;;;;;;;;;8.50;98.70;;;;;;4706912;30;19919;-86
2022/02/24 14:27:45;;;;;;;;;;;6.90;99.90;;;;;;4640995;30;19920;-88
2022/02/24 14:35:18;;;;;;;;;;;6.90;99.90;;;;;;4638204;30;19924;-84
2022/02/24 14:37:47;;;;;;;;;;;7.10;99.90;;;;;;4647487;30;19932;-83
2022/02/24 14:40:15;;;;;;;;;;;5.60;99.90;;;;;;4725240;30;19934;-84
2022/02/24 14:42:43;;;;;;;;;;;7.20;99.90;;;;;;4748618;30;19947;-83
2022/02/24 14:45:20;;;;;;;;;;;7.10;99.90;;;;;;4758678;30;19972;-85
2022/02/24 14:47:57;;;;;;;;;;;7.30;99.90;;;;;;4796361;29;19949;-83
2022/02/24 14:50:27;;;;;;;;;;;7.40;99.90;;;;;;4870508;29;19939;-83
2022/02/24 14:52:55;;;;;;;;;;;8.50;99.90;;;;;;4870771;29;20466;-85
2022/02/24 14:55:23;;;;;;;;;;;7.10;99.90;;;;;;4855245;29;20015;-84
2022/02/24 14:57:51;;;;;;;;;;;6.90;99.90;;;;;;4839738;29;19932;-88
2022/02/24 15:00:21;;;;;;;;;;;7.50;99.90;;;;;;4855229;29;19932;-83
2022/02/24 15:02:50;;;;;;;;;;;6.50;99.90;;;;;;4849194;29;19932;-84
2022/02/24 15:05:44;;;;;;;;;;;6.10;99.90;;;;;;4857044;29;19934;-87
2022/02/24 15:12:06;;;;;;;;;;;;;;;;;;;;;
2022/02/24 15:15:35;;;;;;;;;;;6.10;99.90;;;;;;4788982;30;19956;-86
2022/02/24 15:19:07;;;;;;;;;;;7.00;99.90;;;;;;4783675;29;19933;-88
2022/02/24 15:21:52;;;;;;;;;;;7.10;99.90;;;;;;4468453;29;10000031;-86
2022/02/24 15:24:45;;;;;;;;;;;7.70;99.90;;;;;;4795059;29;19929;-88
2022/02/24 15:27:33;;;;;;;;;;;8.10;99.90;;;;;;4797043;29;19929;-87
2022/02/24 15:30:21;;;;;;;;;;;8.30;99.90;;;;;;4795384;29;19932;-85
2022/02/24 15:33:46;;;;;;;;;;;8.90;99.90;;;;;;4801633;29;19937;-84
2022/02/24 15:36:36;;;;;;;;;;;7.80;99.90;;;;;;4819782;29;20333;-85
2022/02/24 15:40:13;;;;;;;;;;;;;;;;;;;;;
2022/02/24 15:46:33;;;;;;;;;;;;;;;;;;;;;
2022/02/24 15:50:14;;;;;;;;;;;10.20;99.00;;;;;;4851765;29;19927;-87
2022/02/24 15:53:28;;;;;;;;;;;10.50;97.80;;;;;;4859558;29;19939;-87
2022/02/24 15:56:42;;;;;;;;;;;10.50;96.90;;;;;;4814604;29;19941;-84
2022/02/24 15:59:34;;;;;;;;;;;9.60;96.30;;;;;;4801377;29;19973;-86
2022/02/24 16:02:12;;;;;;;;;;;10.40;97.60;;;;;;4803366;29;19937;-85
2022/02/24 16:05:05;;;;;;;;;;;10.80;96.00;;;;;;4806176;29;21356;-86
2022/02/24 16:07:35;;;;;;;;;;;10.30;96.30;;;;;;4804535;29;19932;-84
2022/02/24 16:10:20;;;;;;;;;;;10.20;97.10;;;;;;4800240;29;19917;-85
2022/02/24 16:12:55;;;;;;;;;;;9.50;96.90;;;;;;4799076;29;19937;-84
2022/02/24 16:15:25;;;;;;;;;;;8.20;98.00;;;;;;4785062;29;19936;-83
2022/02/24 16:18:28;;;;;;;;;;;8.80;97.70;;;;;;4814488;29;19968;-85
2022/02/24 16:21:05;;;;;;;;;;;8.20;97.30;;;;;;4876996;29;19938;-82
2022/02/24 16:23:53;;;;;;;;;;;7.70;97.90;;;;;;4871631;29;19932;-82
2022/02/24 16:26:29;;;;;;;;;;;7.70;98.60;;;;;;4870550;29;19934;-82
2022/02/24 16:29:03;;;;;;;;;;;7.20;98.40;;;;;;4876272;29;19942;-84
2022/02/24 16:31:35;;;;;;;;;;;8.30;99.10;;;;;;4890117;29;20246;-85
2022/02/24 16:34:28;;;;;;;;;;;6.80;97.60;;;;;;4888635;29;19932;-86
2022/02/24 16:37:06;;;;;;;;;;;7.00;97.50;;;;;;4872696;29;19936;-87
2022/02/24 16:39:37;;;;;;;;;;;6.70;98.00;;;;;;4886497;29;19928;-85
2022/02/24 16:42:09;;;;;;;;;;;7.00;98.30;;;;;;4886782;29;19928;-83
2022/02/24 16:44:42;;;;;;;;;;;6.60;97.00;;;;;;4859580;29;22846;-85
2022/02/24 16:47:44;;;;;;;;;;;6.60;96.60;;;;;;4889591;29;19932;-84
2022/02/24 16:50:14;;;;;;;;;;;6.50;96.40;;;;;;4872172;29;19935;-83
2022/02/24 16:52:42;;;;;;;;;;;7.90;96.10;;;;;;4876412;29;19927;-84
2022/02/24 16:55:17;;;;;;;;;;;6.40;95.60;;;;;;4875465;29;19936;-87
2022/02/24 16:57:52;;;;;;;;;;;6.40;94.40;;;;;;4892128;29;19938;-85
2022/02/24 17:00:27;;;;;;;;;;;6.70;95.40;;;;;;4887806;29;19951;-82
2022/02/24 17:02:59;;;;;;;;;;;6.40;93.40;;;;;;4862030;29;20182;-84
2022/02/24 17:05:29;;;;;;;;;;;6.40;93.70;;;;;;4873916;29;19935;-84
2022/02/24 17:08:03;;;;;;;;;;;6.40;92.80;;;;;;4854567;29;19942;-84
2022/02/24 17:10:47;;;;;;;;;;;6.60;92.80;;;;;;4875862;29;20144;-84
2022/02/24 17:13:16;;;;;;;;;;;6.40;92.30;;;;;;4877284;29;19939;-85
2022/02/24 17:15:46;;;;;;;;;;;6.00;92.60;;;;;;4888627;29;19942;-85
2022/02/24 17:18:15;;;;;;;;;;;6.30;93.10;;;;;;4889596;29;19927;-85
2022/02/24 17:20:46;;;;;;;;;;;5.00;92.00;;;;;;4875509;29;19932;-84
2022/02/24 17:23:17;;;;;;;;;;;6.20;93.10;;;;;;4887624;29;19939;-83
2022/02/24 17:25:46;;;;;;;;;;;6.30;93.00;;;;;;4886376;29;19947;-83
2022/02/24 17:28:16;;;;;;;;;;;6.30;93.80;;;;;;4873615;29;19979;-84
2022/02/24 17:30:48;;;;;;;;;;;5.90;93.10;;;;;;4875463;29;19943;-84
2022/02/24 17:33:16;;;;;;;;;;;6.10;93.60;;;;;;4873499;29;19931;-83
2022/02/24 17:35:44;;;;;;;;;;;5.90;93.90;;;;;;4870726;29;19928;-85
2022/02/24 17:38:14;;;;;;;;;;;6.20;94.20;;;;;;4887784;29;19928;-81
2022/02/24 17:40:42;;;;;;;;;;;5.80;94.00;;;;;;4872689;29;19935;-84
2022/02/24 17:43:12;;;;;;;;;;;5.80;95.10;;;;;;4888812;29;19928;-83
2022/02/24 17:45:44;;;;;;;;;;;7.30;94.80;;;;;;4886505;29;19935;-84
2022/02/24 17:48:12;;;;;;;;;;;6.80;94.10;;;;;;4871245;29;20001;-82
2022/02/24 17:50:43;;;;;;;;;;;5.80;94.10;;;;;;4870806;29;20255;-84
2022/02/24 17:53:13;;;;;;;;;;;5.90;94.30;;;;;;4873948;29;19932;-84
2022/02/24 17:55:42;;;;;;;;;;;4.90;94.80;;;;;;4852000;29;19938;-83
2022/02/24 17:58:15;;;;;;;;;;;5.70;94.40;;;;;;4884058;29;19939;-84
2022/02/24 18:00:46;;;;;;;;;;;6.00;95.20;;;;;;4881070;29;20031;-84
2022/02/24 18:03:15;;;;;;;;;;;5.60;95.00;;;;;;4868849;29;19928;-84
2022/02/24 18:05:47;;;;;;;;;;;4.10;95.50;;;;;;4881401;29;19931;-83
2022/02/24 18:08:17;;;;;;;;;;;5.50;95.00;;;;;;4883312;29;19928;-84
2022/02/24 18:10:52;;;;;;;;;;;5.50;95.40;;;;;;4879570;29;20181;-82
2022/02/24 18:13:21;;;;;;;;;;;5.40;95.60;;;;;;4868739;29;19948;-83
2022/02/24 18:15:50;;;;;;;;;;;7.20;96.40;;;;;;4878410;29;19946;-84
2022/02/24 18:18:17;;;;;;;;;;;5.30;95.50;;;;;;4884437;29;19939;-83
2022/02/24 18:20:46;;;;;;;;;;;6.60;96.00;;;;;;4862183;29;19935;-84
2022/02/24 18:23:14;;;;;;;;;;;5.40;95.10;;;;;;4881151;29;19928;-83
2022/02/24 18:25:42;;;;;;;;;;;5.20;95.90;;;;;;4865704;29;19950;-83
2022/02/24 18:28:10;;;;;;;;;;;4.80;96.00;;;;;;4879814;29;19936;-82
2022/02/24 18:30:38;;;;;;;;;;;5.40;96.00;;;;;;4880253;29;19932;-84
2022/02/24 18:33:06;;;;;;;;;;;5.50;96.20;;;;;;4866066;29;19952;-84
2022/02/24 18:35:34;;;;;;;;;;;5.20;96.60;;;;;;4867185;29;19936;-83
2022/02/24 18:38:04;;;;;;;;;;;5.20;96.10;;;;;;4851789;29;19936;-84